createdAt,value
2019-05-25T00:01:46.554Z,16.40
2019-05-25T00:04:16.952Z,16.40
2019-05-25T00:06:47.230Z,16.40
2019-05-25T00:09:17.620Z,16.40
2019-05-25T00:11:48.055Z,16.30
2019-05-25T00:14:18.399Z,16.30
2019-05-25T00:16:48.713Z,16.30
2019-05-25T00:19:19.079Z,16.20
2019-05-25T00:21:49.418Z,16.20
2019-05-25T00:24:19.744Z,16.10
2019-05-25T00:26:51.182Z,16.10
2019-05-25T00:29:21.494Z,16.10
2019-05-25T00:31:51.844Z,16.00
2019-05-25T00:34:22.404Z,16.00
2019-05-25T00:36:52.770Z,15.90
2019-05-25T00:39:25.948Z,15.90
2019-05-25T00:41:56.328Z,15.80
2019-05-25T00:44:27.777Z,15.80
2019-05-25T00:46:58.074Z,15.70
2019-05-25T00:49:28.482Z,15.70
2019-05-25T00:51:58.868Z,15.70
2019-05-25T00:54:29.184Z,15.70
2019-05-25T00:56:59.509Z,15.60
2019-05-25T00:59:29.832Z,15.50
2019-05-25T01:02:00.170Z,15.50
2019-05-25T01:04:30.484Z,15.40
2019-05-25T01:07:00.836Z,15.40
2019-05-25T01:09:31.164Z,15.30
2019-05-25T01:12:01.492Z,15.20
2019-05-25T01:14:32.872Z,15.20
2019-05-25T01:17:03.196Z,15.10
2019-05-25T01:19:33.582Z,15.10
2019-05-25T01:22:03.971Z,15.00
2019-05-25T01:24:44.387Z,14.90
2019-05-25T01:27:09.314Z,14.90
2019-05-25T01:29:39.734Z,14.80
2019-05-25T01:32:11.074Z,14.80
2019-05-25T01:34:41.622Z,14.70
2019-05-25T01:37:11.950Z,14.60
2019-05-25T01:39:42.313Z,14.60
2019-05-25T01:42:12.668Z,14.50
2019-05-25T01:44:43.035Z,14.40
2019-05-25T01:47:13.379Z,14.40
2019-05-25T01:49:43.752Z,14.30
2019-05-25T01:52:14.120Z,14.20
2019-05-25T01:54:58.862Z,14.20
2019-05-25T01:57:16.413Z,14.10
2019-05-25T01:59:46.707Z,14.10
2019-05-25T02:02:17.040Z,14.00
2019-05-25T02:04:47.494Z,14.00
2019-05-25T02:07:17.838Z,14.00
2019-05-25T02:09:48.188Z,13.90
2019-05-25T02:12:18.551Z,13.90
2019-05-25T02:14:48.861Z,13.90
2019-05-25T02:17:19.213Z,13.80
2019-05-25T02:19:50.564Z,13.80
2019-05-25T02:22:20.992Z,13.80
2019-05-25T02:24:51.355Z,13.80
2019-05-25T02:27:21.685Z,13.80
2019-05-25T02:29:51.987Z,13.80
2019-05-25T02:32:22.356Z,13.70
2019-05-25T02:34:52.646Z,13.70
2019-05-25T02:37:23.014Z,13.70
2019-05-25T02:39:53.333Z,13.60
2019-05-25T02:42:23.787Z,13.60
2019-05-25T02:44:56.142Z,13.60
2019-05-25T02:47:26.541Z,13.60
2019-05-25T02:49:56.824Z,13.60
2019-05-25T02:52:29.468Z,13.60
2019-05-25T02:54:59.788Z,13.50
2019-05-25T02:57:30.096Z,13.50
2019-05-25T03:00:00.468Z,13.50
2019-05-25T03:02:31.145Z,13.50
2019-05-25T03:05:01.508Z,13.40
2019-05-25T03:07:32.513Z,13.40
2019-05-25T03:10:03.741Z,13.40
2019-05-25T03:12:34.044Z,13.40
2019-05-25T03:15:05.067Z,13.40
2019-05-25T03:17:35.595Z,13.40
2019-05-25T03:20:06.563Z,13.40
2019-05-25T03:22:36.868Z,13.40
2019-05-25T03:25:07.669Z,13.40
2019-05-25T03:27:37.968Z,13.40
2019-05-25T03:30:09.174Z,13.40
2019-05-25T03:32:39.463Z,13.50
2019-05-25T03:35:10.016Z,13.50
2019-05-25T03:37:40.313Z,13.50
2019-05-25T03:40:10.776Z,13.50
2019-05-25T03:42:41.140Z,13.50
2019-05-25T03:45:12.305Z,13.50
2019-05-25T03:47:42.678Z,13.50
2019-05-25T03:50:13.022Z,13.50
2019-05-25T03:52:43.370Z,13.60
2019-05-25T03:55:13.790Z,13.60
2019-05-25T03:57:44.472Z,13.60
2019-05-25T04:00:15.836Z,13.70
2019-05-25T04:02:46.221Z,13.60
2019-05-25T04:05:16.496Z,13.70
2019-05-25T04:07:46.828Z,13.70
2019-05-25T04:10:17.217Z,13.70
2019-05-25T04:12:47.518Z,13.70
2019-05-25T04:15:17.864Z,13.80
2019-05-25T04:17:48.167Z,13.80
2019-05-25T04:20:18.798Z,13.80
2019-05-25T04:22:49.090Z,13.80
2019-05-25T04:25:19.433Z,13.80
2019-05-25T04:27:49.800Z,13.90
2019-05-25T04:30:20.178Z,13.90
2019-05-25T04:32:50.489Z,13.90
2019-05-25T04:35:20.844Z,14.00
2019-05-25T04:37:51.191Z,14.00
2019-05-25T04:40:23.140Z,14.10
2019-05-25T04:42:53.800Z,14.10
2019-05-25T04:45:25.516Z,14.10
2019-05-25T04:47:55.905Z,14.20
2019-05-25T04:50:26.226Z,14.30
2019-05-25T04:52:56.632Z,14.40
2019-05-25T04:55:26.973Z,14.40
2019-05-25T04:57:59.374Z,14.50
2019-05-25T05:00:30.225Z,14.60
2019-05-25T05:03:00.561Z,14.60
2019-05-25T05:05:30.927Z,14.70
2019-05-25T05:08:01.231Z,14.80
2019-05-25T05:10:31.629Z,14.90
2019-05-25T05:13:02.009Z,14.90
2019-05-25T05:15:33.524Z,15.00
2019-05-25T05:18:03.872Z,15.10
2019-05-25T05:20:34.188Z,15.20
2019-05-25T05:23:04.524Z,15.30
2019-05-25T05:25:34.898Z,15.40
2019-05-25T05:28:05.395Z,15.50
2019-05-25T05:30:36.841Z,15.60
2019-05-25T05:33:07.198Z,15.90
2019-05-25T05:35:39.105Z,16.00
2019-05-25T05:38:11.341Z,16.10
2019-05-25T05:40:42.327Z,16.20
2019-05-25T05:43:13.027Z,16.40
2019-05-25T05:45:47.583Z,16.50
2019-05-25T05:48:21.028Z,16.60
2019-05-25T05:50:53.041Z,16.70
2019-05-25T05:53:28.390Z,16.80
2019-05-25T05:55:58.736Z,16.90
2019-05-25T05:58:29.035Z,16.90
2019-05-25T06:01:00.494Z,17.00
2019-05-25T06:03:30.794Z,17.10
2019-05-25T06:06:01.286Z,17.10
2019-05-25T06:08:33.942Z,17.20
2019-05-25T06:11:04.934Z,17.40
2019-05-25T06:13:35.264Z,17.60
2019-05-25T06:16:06.944Z,17.70
2019-05-25T06:18:37.262Z,17.70
2019-05-25T06:21:07.608Z,17.70
2019-05-25T06:23:37.908Z,17.80
2019-05-25T06:26:08.327Z,17.80
2019-05-25T06:28:38.642Z,17.80
2019-05-25T06:31:09.022Z,17.90
2019-05-25T06:33:39.401Z,17.90
2019-05-25T06:36:09.739Z,18.00
2019-05-25T06:38:40.089Z,18.00
2019-05-25T06:41:10.386Z,18.10
2019-05-25T06:43:44.064Z,18.10
2019-05-25T06:46:15.784Z,18.20
2019-05-25T06:48:46.355Z,18.40
2019-05-25T06:51:16.727Z,18.70
2019-05-25T06:53:47.101Z,18.90
2019-05-25T06:56:17.412Z,19.00
2019-05-25T06:58:47.833Z,19.00
2019-05-25T07:01:18.187Z,19.10
2019-05-25T07:03:48.519Z,19.20
2019-05-25T07:06:18.885Z,19.30
2019-05-25T07:08:49.949Z,19.20
2019-05-25T07:11:23.406Z,19.30
2019-05-25T07:13:53.697Z,19.30
2019-05-25T07:16:24.754Z,19.40
2019-05-25T07:18:55.252Z,19.40
2019-05-25T07:21:27.625Z,19.50
2019-05-25T07:23:58.000Z,19.60
2019-05-25T07:26:28.362Z,19.70
2019-05-25T07:28:58.724Z,19.80
2019-05-25T07:31:29.094Z,20.00
2019-05-25T07:33:59.408Z,21.00
2019-05-25T07:36:54.585Z,23.00
2019-05-25T07:39:24.960Z,25.10
2019-05-25T07:41:57.906Z,27.50
2019-05-25T07:44:28.189Z,29.40
2019-05-25T07:46:59.445Z,30.80
2019-05-25T07:49:29.738Z,32.10
2019-05-25T07:52:02.622Z,33.10
2019-05-25T07:54:31.996Z,33.80
2019-05-25T07:57:02.724Z,34.40
2019-05-25T07:59:33.030Z,35.10
2019-05-25T08:02:03.350Z,35.70
2019-05-25T08:04:33.673Z,36.20
2019-05-25T08:07:04.080Z,36.70
2019-05-25T08:09:34.574Z,36.90
2019-05-25T08:12:04.940Z,37.30
2019-05-25T08:14:35.244Z,37.60
2019-05-25T08:17:05.779Z,37.80
2019-05-25T08:19:36.112Z,38.20
2019-05-25T09:44:30.540Z,39.10
2019-05-25T09:47:01.891Z,38.60
2019-05-25T09:49:32.215Z,38.30
2019-05-25T09:52:02.548Z,37.90
2019-05-25T09:54:32.912Z,37.60
2019-05-25T09:57:03.400Z,37.30
2019-05-25T09:59:33.739Z,37.00
2019-05-25T10:02:04.104Z,37.00
2019-05-25T10:04:34.471Z,37.20
2019-05-25T10:07:04.803Z,37.10
2019-05-25T10:09:35.160Z,37.20
2019-05-25T10:12:05.667Z,37.30
2019-05-25T10:14:36.638Z,37.40
2019-05-25T10:17:06.914Z,37.40
2019-05-25T10:19:37.259Z,37.50
2019-05-25T10:22:07.554Z,37.80
2019-05-25T10:24:37.924Z,37.90
2019-05-25T10:27:08.240Z,38.00
2019-05-25T10:29:38.588Z,37.90
2019-05-25T10:32:08.902Z,37.60
2019-05-25T10:34:39.242Z,37.20
2019-05-25T10:37:09.562Z,36.50
2019-05-25T10:39:39.920Z,36.00
2019-05-25T10:42:10.789Z,35.50
2019-05-25T10:44:42.419Z,35.10
2019-05-25T10:56:11.770Z,33.80
2019-05-25T10:58:42.070Z,33.40
2019-05-25T11:01:12.480Z,33.30
2019-05-25T11:03:42.781Z,33.20
2019-05-25T11:06:13.158Z,33.00
2019-05-25T11:12:02.494Z,32.60
2019-05-25T11:14:33.854Z,32.50
2019-05-25T11:17:05.648Z,32.30
2019-05-25T11:19:35.993Z,32.00
2019-05-25T11:22:06.448Z,31.90
2019-05-25T11:24:36.772Z,31.80
2019-05-25T11:27:07.066Z,31.70
2019-05-25T11:32:36.436Z,31.50
2019-05-25T11:35:07.948Z,31.40
2019-05-25T11:37:38.615Z,31.40
2019-05-25T11:40:09.549Z,31.30
2019-05-25T11:42:39.865Z,31.20
2019-05-25T11:45:11.289Z,31.00
2019-05-25T11:50:43.744Z,30.90
2019-05-25T11:53:14.033Z,30.70
2019-05-25T11:55:44.350Z,30.60
2019-05-25T11:58:14.732Z,30.60
2019-05-25T12:00:45.084Z,30.40
2019-05-25T12:03:15.551Z,30.30
2019-05-25T12:05:45.874Z,30.20
2019-05-25T12:08:17.244Z,30.00
2019-05-25T12:10:47.560Z,29.80
2019-05-25T12:13:18.990Z,29.60
2019-05-25T12:15:49.292Z,29.50
2019-05-25T12:18:20.661Z,29.40
2019-05-25T12:20:51.036Z,29.30
2019-05-25T12:23:21.380Z,29.00
2019-05-25T12:25:51.730Z,28.70
2019-05-25T12:28:22.098Z,28.60
2019-05-25T12:30:53.446Z,28.50
2019-05-25T12:33:23.826Z,28.50
2019-05-25T12:35:54.154Z,28.40
2019-05-25T12:38:24.526Z,28.30
2019-05-25T12:40:54.882Z,28.30
2019-05-25T12:43:26.436Z,28.40
2019-05-25T12:45:56.820Z,28.30
2019-05-25T12:48:27.732Z,28.30
2019-05-25T12:50:58.116Z,28.10
2019-05-25T12:53:28.448Z,27.80
2019-05-25T12:55:58.748Z,27.70
2019-05-25T12:58:29.154Z,27.50
2019-05-25T13:00:59.529Z,27.30
2019-05-25T13:03:29.843Z,27.20
2019-05-25T13:06:00.184Z,27.00
2019-05-25T13:08:30.486Z,26.80
2019-05-25T13:11:00.801Z,26.50
2019-05-25T13:13:31.132Z,26.40
2019-05-25T13:16:01.460Z,26.30
2019-05-25T13:18:32.617Z,26.20
2019-05-25T13:21:02.920Z,26.20
2019-05-25T13:23:33.267Z,26.00
2019-05-25T13:26:03.556Z,25.90
2019-05-25T13:28:33.982Z,25.80
2019-05-25T13:31:11.627Z,25.70
2019-05-25T13:33:48.064Z,25.70
2019-05-25T13:36:19.388Z,25.60
2019-05-25T13:38:49.708Z,25.50
2019-05-25T13:41:19.996Z,25.60
2019-05-25T13:43:50.375Z,25.60
2019-05-25T13:46:21.768Z,25.60
2019-05-25T13:48:52.096Z,25.60
2019-05-25T13:51:22.400Z,25.70
2019-05-25T13:53:52.754Z,25.70
2019-05-25T13:56:23.068Z,25.70
2019-05-25T13:58:53.370Z,25.60
2019-05-25T14:01:28.338Z,25.60
2019-05-25T14:03:57.554Z,25.60
2019-05-25T14:06:27.860Z,25.60
2019-05-25T14:08:58.212Z,25.60
2019-05-25T14:11:47.912Z,25.60
2019-05-25T14:14:18.280Z,25.60
2019-05-25T14:16:48.562Z,25.50
2019-05-25T14:19:19.362Z,25.40
2019-05-25T14:21:49.699Z,25.50
2019-05-25T14:24:20.003Z,25.50
2019-05-25T14:26:50.324Z,25.50
2019-05-25T14:29:20.608Z,25.60
2019-05-25T14:31:50.938Z,25.50
2019-05-25T14:34:21.365Z,25.60
2019-05-25T14:36:51.709Z,25.50
2019-05-25T14:39:21.996Z,25.50
2019-05-25T14:41:52.334Z,25.50
2019-05-25T14:44:22.648Z,25.40
2019-05-25T14:46:52.966Z,25.40
2019-05-25T14:49:24.228Z,25.40
2019-05-25T14:51:54.573Z,25.40
2019-05-25T14:54:24.924Z,25.30
2019-05-25T14:57:17.481Z,25.30
2019-05-25T14:59:47.802Z,25.30
2019-05-25T15:02:18.212Z,25.30
2019-05-25T15:04:48.553Z,25.10
2019-05-25T15:07:18.910Z,25.10
2019-05-25T15:09:49.198Z,25.00
2019-05-25T15:12:19.844Z,24.90
2019-05-25T15:14:50.143Z,24.80
2019-05-25T15:17:20.470Z,24.90
2019-05-25T15:19:50.803Z,24.70
2019-05-25T15:22:21.150Z,24.70
2019-05-25T15:24:51.440Z,24.70
2019-05-25T15:27:21.777Z,24.70
2019-05-25T15:29:52.055Z,24.60
2019-05-25T15:32:22.388Z,24.60
2019-05-25T15:34:52.672Z,24.60
2019-05-25T15:37:23.048Z,24.60
2019-05-25T15:39:53.346Z,24.60
2019-05-25T15:42:23.672Z,24.50
2019-05-25T15:44:53.972Z,24.50
2019-05-25T15:47:24.334Z,24.50
2019-05-25T15:49:56.233Z,24.40
2019-05-25T15:52:26.527Z,24.40
2019-05-25T15:55:16.102Z,24.40
2019-05-25T15:57:47.609Z,24.30
2019-05-25T16:00:18.021Z,24.30
2019-05-25T16:02:48.430Z,24.20
2019-05-25T16:05:18.850Z,24.20
2019-05-25T16:07:52.310Z,24.10
2019-05-25T16:10:22.642Z,24.00
2019-05-25T16:12:54.011Z,24.00
2019-05-25T16:15:28.314Z,24.00
2019-05-25T16:17:58.596Z,23.80
2019-05-25T16:20:28.924Z,23.80
2019-05-25T16:22:59.224Z,23.70
2019-05-25T16:25:29.539Z,23.70
2019-05-25T16:27:59.852Z,23.60
2019-05-25T16:30:31.630Z,23.60
2019-05-25T16:33:17.325Z,23.60
2019-05-25T16:35:34.014Z,23.50
2019-05-25T16:38:05.569Z,23.50
2019-05-25T16:40:36.168Z,23.50
2019-05-25T16:43:06.471Z,23.30
2019-05-25T16:45:37.150Z,23.20
2019-05-25T16:48:07.446Z,23.10
2019-05-25T16:50:37.808Z,23.00
2019-05-25T16:53:08.086Z,23.00
2019-05-25T16:55:38.410Z,22.90
2019-05-25T16:58:08.776Z,22.80
2019-05-25T17:00:39.132Z,22.80
2019-05-25T17:03:24.712Z,22.70
2019-05-25T17:05:41.481Z,22.60
2019-05-25T17:08:11.805Z,22.50
2019-05-25T17:10:42.197Z,22.50
2019-05-25T17:13:12.530Z,22.40
2019-05-25T17:15:42.823Z,22.30
2019-05-25T17:18:13.162Z,22.20
2019-05-25T17:20:43.512Z,22.10
2019-05-25T17:23:13.805Z,22.00
2019-05-25T17:25:44.168Z,21.90
2019-05-25T17:28:14.512Z,21.80
2019-05-25T17:30:46.515Z,21.70
2019-05-25T17:33:16.804Z,21.60
2019-05-25T17:35:47.126Z,21.50
2019-05-25T17:38:17.437Z,21.40
2019-05-25T17:40:47.738Z,21.30
2019-05-25T17:43:18.059Z,21.20
2019-05-25T17:45:49.444Z,21.10
2019-05-25T17:48:19.821Z,21.00
2019-05-25T17:50:51.428Z,20.90
2019-05-25T17:53:21.792Z,20.90
2019-05-25T17:55:52.096Z,20.80
2019-05-25T17:58:22.453Z,20.70
2019-05-25T18:00:52.801Z,20.70
2019-05-25T18:03:23.166Z,20.50
2019-05-25T18:05:53.516Z,20.50
2019-05-25T18:08:23.836Z,20.40
2019-05-25T18:10:54.831Z,20.30
2019-05-25T18:13:28.739Z,20.30
2019-05-25T18:15:57.320Z,20.20
2019-05-25T18:18:27.610Z,20.10
2019-05-25T18:20:58.696Z,20.00
2019-05-25T18:23:29.003Z,20.00
2019-05-25T18:25:59.375Z,19.90
2019-05-25T18:28:29.974Z,19.80
2019-05-25T18:31:00.726Z,19.70
2019-05-25T18:33:31.045Z,19.70
2019-05-25T18:36:01.396Z,19.60
2019-05-25T18:38:31.754Z,19.40
2019-05-25T18:41:02.130Z,19.40
2019-05-25T18:43:32.516Z,19.30
2019-05-25T18:46:04.760Z,19.30
2019-05-25T18:48:35.064Z,19.20
2019-05-25T18:51:06.662Z,19.20
2019-05-25T18:53:37.009Z,19.10
2019-05-25T18:56:07.304Z,19.00
2019-05-25T18:58:37.842Z,18.90
2019-05-25T19:01:08.124Z,18.90
2019-05-25T19:03:38.514Z,18.80
2019-05-25T19:06:08.818Z,18.70
2019-05-25T19:08:39.198Z,18.70
2019-05-25T19:11:09.480Z,18.70
2019-05-25T19:13:39.870Z,18.70
2019-05-25T19:16:10.178Z,18.70
2019-05-25T19:18:40.508Z,18.60
2019-05-25T19:21:12.989Z,18.60
2019-05-25T19:23:43.402Z,18.60
2019-05-25T19:26:14.417Z,18.50
2019-05-25T19:28:45.815Z,18.40
2019-05-25T19:31:16.713Z,18.40
2019-05-25T19:33:47.056Z,18.30
2019-05-25T19:36:17.376Z,18.20
2019-05-25T19:38:50.805Z,18.20
2019-05-25T19:41:21.231Z,18.10
2019-05-25T19:43:51.620Z,18.10
2019-05-25T19:46:22.169Z,18.10
2019-05-25T19:48:52.592Z,18.00
2019-05-25T19:51:25.588Z,18.00
2019-05-25T19:53:56.075Z,17.90
2019-05-25T19:56:26.392Z,17.90
2019-05-25T19:58:58.480Z,17.80
2019-05-25T20:01:28.839Z,17.80
2019-05-25T20:04:02.144Z,17.70
2019-05-25T20:06:32.750Z,17.60
2019-05-25T20:09:03.274Z,17.50
2019-05-25T20:11:40.422Z,17.50
2019-05-25T20:14:15.112Z,17.40
2019-05-25T20:16:45.506Z,17.40
2019-05-25T20:19:15.905Z,17.30
2019-05-25T20:21:46.547Z,17.30
2019-05-25T20:24:17.032Z,17.20
2019-05-25T20:26:48.737Z,17.10
2019-05-25T20:29:20.081Z,17.10
2019-05-25T20:31:50.897Z,17.00
2019-05-25T20:34:21.602Z,16.90
2019-05-25T20:36:52.272Z,16.90
2019-05-25T20:39:25.040Z,16.80
2019-05-25T20:41:58.909Z,16.80
2019-05-25T20:44:42.028Z,16.70
2019-05-25T20:47:12.468Z,16.70
2019-05-25T20:49:43.428Z,16.60
2019-05-25T20:52:16.630Z,16.50
2019-05-25T20:54:47.790Z,16.50
2019-05-25T20:57:18.216Z,16.40
2019-05-25T20:59:53.370Z,16.40
2019-05-25T21:02:27.657Z,16.30
2019-05-25T21:05:02.966Z,16.30
2019-05-25T21:07:33.846Z,16.20
2019-05-25T21:10:05.058Z,16.20
2019-05-25T21:12:35.584Z,16.10
2019-05-25T21:15:06.762Z,16.00
2019-05-25T21:17:37.223Z,16.00
2019-05-25T21:20:09.198Z,16.00
2019-05-25T21:22:40.501Z,15.90
2019-05-25T21:25:12.818Z,15.90
2019-05-25T21:27:43.292Z,15.80
2019-05-25T21:30:15.460Z,15.70
2019-05-25T21:32:46.448Z,15.70
2019-05-25T21:35:19.428Z,15.70
2019-05-25T21:37:52.559Z,15.60
2019-05-25T21:40:22.895Z,15.60
2019-05-25T21:42:54.336Z,15.50
2019-05-25T21:45:26.888Z,15.40
2019-05-25T21:47:58.336Z,15.40
2019-05-25T21:50:29.035Z,15.30
2019-05-25T21:53:00.495Z,15.20
2019-05-25T21:55:30.881Z,15.10
2019-05-25T21:58:01.186Z,15.00
2019-05-25T22:00:32.467Z,15.00
2019-05-25T22:03:04.880Z,14.90
2019-05-25T22:05:35.866Z,14.80
2019-05-25T22:08:06.424Z,14.80
2019-05-25T22:10:36.868Z,14.70
2019-05-25T22:13:23.499Z,14.70
2019-05-25T22:15:39.867Z,14.60
2019-05-25T22:18:10.322Z,14.50
2019-05-25T22:20:41.309Z,14.40
2019-05-25T22:23:13.175Z,14.30
2019-05-25T22:25:44.216Z,14.20
2019-05-25T22:28:14.696Z,14.20
2019-05-25T22:30:45.864Z,14.10
2019-05-25T22:33:16.346Z,14.10
2019-05-25T22:35:46.644Z,13.90
2019-05-25T22:38:16.981Z,13.90
2019-05-25T22:40:47.372Z,13.80
2019-05-25T22:43:17.766Z,13.70
2019-05-25T22:45:49.704Z,13.70
2019-05-25T22:48:23.025Z,13.60
2019-05-25T22:50:53.366Z,13.50
2019-05-25T22:53:25.287Z,13.50
2019-05-25T22:55:55.706Z,13.40
2019-05-25T22:58:27.621Z,13.30
2019-05-25T23:01:01.330Z,13.30
2019-05-25T23:03:32.153Z,13.30
2019-05-25T23:06:06.302Z,13.20
2019-05-25T23:08:36.874Z,13.20
2019-05-25T23:11:07.310Z,13.10
2019-05-25T23:13:38.569Z,13.10
2019-05-25T23:16:14.555Z,13.00
2019-05-25T23:18:46.036Z,13.00
2019-05-25T23:21:17.622Z,12.90
2019-05-25T23:23:49.028Z,12.90
2019-05-25T23:26:20.013Z,12.80
2019-05-25T23:28:50.680Z,12.80
2019-05-25T23:31:20.972Z,12.80
2019-05-25T23:33:51.312Z,12.80
2019-05-25T23:36:22.378Z,12.80
2019-05-25T23:38:52.700Z,12.80
2019-05-25T23:41:23.065Z,12.80
2019-05-25T23:43:53.416Z,12.80
2019-05-25T23:46:24.164Z,12.80
2019-05-25T23:48:54.547Z,12.70
2019-05-25T23:51:24.829Z,12.70
2019-05-25T23:53:55.618Z,12.70
2019-05-25T23:56:25.909Z,12.70
2019-05-25T23:58:56.227Z,12.70
